createdAt,value
2017-07-05T00:00:40.887Z,16.36
2017-07-05T00:01:51.150Z,16.31
2017-07-05T00:03:01.114Z,16.36
2017-07-05T00:04:11.398Z,16.31
2017-07-05T00:05:21.610Z,16.28
2017-07-05T00:06:31.880Z,16.28
2017-07-05T00:07:41.828Z,16.31
2017-07-05T00:08:51.773Z,16.31
2017-07-05T00:10:01.718Z,16.31
2017-07-05T00:11:11.605Z,16.34
2017-07-05T00:12:21.560Z,16.25
2017-07-05T00:13:31.829Z,16.34
2017-07-05T00:14:41.793Z,16.34
2017-07-05T00:15:51.423Z,16.34
2017-07-05T00:17:01.933Z,16.31
2017-07-05T00:18:11.884Z,16.36
2017-07-05T00:19:21.828Z,16.36
2017-07-05T00:20:32.084Z,16.32
2017-07-05T00:21:42.039Z,16.32
2017-07-05T00:22:52.850Z,16.32
2017-07-05T00:24:03.103Z,16.36
2017-07-05T00:25:13.386Z,16.34
2017-07-05T00:26:23.656Z,16.36
2017-07-05T00:27:32.966Z,16.36
2017-07-05T00:28:42.846Z,16.36
2017-07-05T00:29:52.515Z,16.34
2017-07-05T00:31:02.796Z,16.25
2017-07-05T00:32:13.070Z,16.28
2017-07-05T00:33:23.348Z,16.25
2017-07-05T00:34:33.923Z,16.22
2017-07-05T00:35:44.195Z,16.24
2017-07-05T00:36:53.520Z,16.21
2017-07-05T00:38:03.788Z,16.24
2017-07-05T00:39:14.057Z,16.18
2017-07-05T00:40:24.582Z,16.25
2017-07-05T00:41:34.852Z,16.06
2017-07-05T00:42:44.506Z,16.1
2017-07-05T00:43:54.784Z,16.09
2017-07-05T00:45:05.035Z,16.09
2017-07-05T00:46:15.222Z,16.05
2017-07-05T00:47:25.478Z,16.1
2017-07-05T00:48:35.743Z,16.08
2017-07-05T00:49:45.687Z,16.08
2017-07-05T00:50:55.636Z,16.08
2017-07-05T00:52:06.156Z,16.06
2017-07-05T00:53:16.411Z,16.06
2017-07-05T00:54:26.699Z,16.09
2017-07-05T00:55:36.985Z,16.18
2017-07-05T00:56:46.946Z,16.29
2017-07-05T01:02:44.013Z,16.06
2017-07-05T01:03:53.658Z,16.08
2017-07-05T01:05:03.600Z,16.03
2017-07-05T01:06:13.234Z,16.03
2017-07-05T01:07:23.191Z,16
2017-07-05T01:08:33.393Z,16.02
2017-07-05T01:09:43.684Z,15.94
2017-07-05T01:10:53.946Z,16.03
2017-07-05T01:12:03.892Z,15.83
2017-07-05T01:13:14.171Z,15.84
2017-07-05T01:14:24.692Z,15.96
2017-07-05T01:15:34.964Z,15.85
2017-07-05T01:16:45.213Z,15.84
2017-07-05T01:17:55.469Z,15.84
2017-07-05T01:19:05.722Z,15.8
2017-07-05T01:20:15.922Z,15.76
2017-07-05T01:21:25.863Z,15.72
2017-07-05T01:22:35.799Z,15.67
2017-07-05T01:23:45.424Z,15.66
2017-07-05T01:24:55.380Z,15.65
2017-07-05T01:26:05.593Z,15.63
2017-07-05T01:27:15.225Z,15.67
2017-07-05T01:28:25.480Z,15.62
2017-07-05T01:29:35.435Z,15.62
2017-07-05T01:30:45.406Z,15.66
2017-07-05T01:31:55.924Z,15.6
2017-07-05T01:33:05.557Z,15.51
2017-07-05T01:34:15.819Z,15.52
2017-07-05T01:35:26.070Z,15.52
2017-07-05T01:36:36.334Z,15.5
2017-07-05T01:37:46.927Z,15.47
2017-07-05T01:38:57.197Z,15.52
2017-07-05T01:40:06.835Z,15.45
2017-07-05T01:41:17.092Z,15.55
2017-07-05T01:42:27.052Z,15.43
2017-07-05T01:43:36.934Z,15.5
2017-07-05T01:44:46.900Z,15.51
2017-07-05T01:45:57.367Z,15.51
2017-07-05T01:47:07.010Z,15.45
2017-07-05T01:48:17.291Z,15.5
2017-07-05T01:49:27.804Z,15.43
2017-07-05T01:50:37.766Z,15.5
2017-07-05T01:51:48.056Z,15.47
2017-07-05T01:52:58.329Z,15.45
2017-07-05T01:54:08.588Z,15.47
2017-07-05T01:55:18.792Z,15.41
2017-07-05T01:56:28.738Z,15.36
2017-07-05T01:57:38.679Z,15.35
2017-07-05T01:58:48.933Z,15.35
2017-07-05T01:59:59.195Z,15.33
2017-07-05T02:01:09.710Z,15.3
2017-07-05T02:02:19.657Z,15.32
2017-07-05T02:03:29.613Z,15.3
2017-07-05T02:04:39.550Z,15.3
2017-07-05T02:05:49.509Z,15.29
2017-07-05T02:07:00.035Z,15.35
2017-07-05T02:08:09.993Z,15.27
2017-07-05T02:09:19.935Z,15.27
2017-07-05T02:10:30.253Z,15.35
2017-07-05T02:11:39.556Z,15.37
2017-07-05T02:12:49.123Z,15.32
2017-07-05T02:13:59.392Z,15.35
2017-07-05T02:15:09.657Z,15.29
2017-07-05T02:16:19.621Z,15.23
2017-07-05T02:17:29.576Z,15.25
2017-07-05T02:18:39.763Z,15.14
2017-07-05T02:19:50.030Z,15.15
2017-07-05T02:21:00.307Z,15.12
2017-07-05T02:22:10.486Z,15.12
2017-07-05T02:23:20.744Z,15.12
2017-07-05T02:24:30.938Z,15.23
2017-07-05T02:25:41.205Z,15.19
2017-07-05T02:26:51.465Z,15.18
2017-07-05T02:28:01.745Z,15.14
2017-07-05T02:29:12.003Z,15.15
2017-07-05T02:30:22.527Z,15.14
2017-07-05T02:31:32.471Z,15.12
2017-07-05T02:32:42.429Z,15.11
2017-07-05T02:33:52.687Z,15.08
2017-07-05T02:35:02.001Z,15.11
2017-07-05T02:36:12.510Z,15.02
2017-07-05T02:37:22.768Z,15.02
2017-07-05T02:38:33.057Z,14.99
2017-07-05T02:39:42.694Z,15
2017-07-05T02:40:52.948Z,15.02
2017-07-05T02:42:03.213Z,15
2017-07-05T02:43:13.473Z,14.99
2017-07-05T02:44:23.744Z,15
2017-07-05T02:45:33.688Z,14.99
2017-07-05T02:46:43.369Z,15.02
2017-07-05T02:47:53.243Z,14.92
2017-07-05T02:49:03.176Z,14.99
2017-07-05T02:50:13.450Z,14.99
2017-07-05T02:51:23.709Z,15.04
2017-07-05T02:52:33.647Z,14.97
2017-07-05T02:53:43.835Z,14.93
2017-07-05T02:54:54.117Z,14.96
2017-07-05T02:56:04.392Z,14.97
2017-07-05T02:57:14.355Z,14.9
2017-07-05T02:58:24.608Z,14.89
2017-07-05T02:59:34.827Z,14.86
2017-07-05T03:00:44.801Z,14.9
2017-07-05T03:01:54.755Z,14.96
2017-07-05T03:03:04.387Z,14.87
2017-07-05T03:04:14.343Z,14.86
2017-07-05T03:05:24.289Z,14.82
2017-07-05T03:06:34.232Z,14.9
2017-07-05T03:07:44.502Z,14.96
2017-07-05T03:08:54.762Z,14.87
2017-07-05T03:10:04.400Z,14.94
2017-07-05T03:11:14.931Z,15.04
2017-07-05T03:12:25.197Z,15.02
2017-07-05T03:13:35.144Z,14.97
2017-07-05T03:14:45.419Z,14.9
2017-07-05T03:15:55.684Z,14.9
2017-07-05T03:17:05.891Z,14.9
2017-07-05T03:18:16.167Z,15
2017-07-05T03:19:26.429Z,15
2017-07-05T03:20:36.691Z,15.08
2017-07-05T03:21:46.629Z,14.9
2017-07-05T03:22:56.838Z,15.02
2017-07-05T03:24:06.475Z,14.96
2017-07-05T03:25:16.418Z,15.02
2017-07-05T03:26:26.680Z,15.04
2017-07-05T03:27:36.632Z,15
2017-07-05T03:28:47.156Z,14.96
2017-07-05T03:29:57.118Z,15.02
2017-07-05T03:31:06.756Z,15.07
2017-07-05T03:32:17.013Z,15.02
2017-07-05T03:33:26.655Z,15.04
2017-07-05T03:34:37.163Z,15.02
2017-07-05T03:35:46.783Z,14.96
2017-07-05T03:36:56.728Z,14.99
2017-07-05T03:38:07.006Z,14.99
2017-07-05T03:39:17.267Z,14.94
2017-07-05T03:40:27.783Z,15.05
2017-07-05T03:41:38.069Z,15.02
2017-07-05T03:42:47.704Z,15.08
2017-07-05T03:43:57.655Z,15.1
2017-07-05T03:45:07.288Z,15.1
2017-07-05T03:46:17.800Z,15.25
2017-07-05T03:47:27.431Z,15.27
2017-07-05T03:48:37.719Z,15.19
2017-07-05T03:49:47.668Z,15.15
2017-07-05T03:50:57.606Z,15.18
2017-07-05T03:52:07.474Z,15.17
2017-07-05T03:53:17.416Z,15.15
2017-07-05T03:54:27.684Z,15.18
2017-07-05T03:55:37.307Z,15.25
2017-07-05T03:56:47.581Z,15.27
2017-07-05T03:57:57.509Z,15.18
2017-07-05T03:59:07.475Z,15.29
2017-07-05T04:00:17.740Z,15.26
2017-07-05T04:01:27.059Z,15.29
2017-07-05T04:02:37.010Z,15.23
2017-07-05T04:03:46.945Z,15.23
2017-07-05T04:04:56.888Z,15.3
2017-07-05T04:06:07.153Z,15.26
2017-07-05T04:07:17.411Z,15.39
2017-07-05T04:08:27.691Z,15.37
2017-07-05T04:09:37.577Z,15.37
2017-07-05T04:10:47.846Z,15.37
2017-07-05T04:11:57.788Z,15.43
2017-07-05T04:13:07.745Z,15.5
2017-07-05T04:14:17.685Z,15.5
2017-07-05T04:15:28.203Z,15.51
2017-07-05T04:16:38.486Z,15.54
2017-07-05T04:17:48.429Z,15.6
2017-07-05T04:18:58.381Z,15.57
2017-07-05T04:20:08.319Z,15.62
2017-07-05T04:21:18.208Z,15.55
2017-07-05T04:22:28.164Z,15.66
2017-07-05T04:23:38.101Z,15.7
2017-07-05T04:24:48.045Z,15.67
2017-07-05T04:25:57.399Z,15.76
2017-07-05T04:27:07.613Z,15.75
2017-07-05T04:28:17.867Z,15.75
2017-07-05T04:29:27.820Z,15.76
2017-07-05T04:30:37.462Z,15.72
2017-07-05T04:31:47.734Z,15.76
2017-07-05T04:32:58.238Z,15.85
2017-07-05T04:34:08.192Z,15.94
2017-07-05T04:35:18.149Z,16
2017-07-05T04:36:28.094Z,16.02
2017-07-05T04:37:38.388Z,15.88
2017-07-05T04:38:48.902Z,15.92
2017-07-05T04:39:59.162Z,16
2017-07-05T04:41:09.111Z,16.02
2017-07-05T04:42:18.753Z,15.94
2017-07-05T04:43:29.026Z,16.05
2017-07-05T04:44:39.588Z,16
2017-07-05T04:45:49.220Z,15.85
2017-07-05T04:46:59.166Z,15.81
2017-07-05T04:48:09.116Z,15.87
2017-07-05T04:49:19.388Z,15.87
2017-07-05T04:50:29.896Z,15.87
2017-07-05T04:51:39.847Z,15.85
2017-07-05T04:52:50.096Z,15.85
2017-07-05T04:54:00.030Z,15.83
2017-07-05T04:55:09.984Z,15.88
2017-07-05T04:56:20.175Z,15.84
2017-07-05T04:57:30.109Z,15.84
2017-07-05T04:58:40.385Z,15.87
2017-07-05T04:59:50.669Z,15.87
2017-07-05T05:01:00.941Z,15.84
2017-07-05T05:02:11.153Z,15.84
2017-07-05T05:03:21.123Z,15.75
2017-07-05T05:04:31.129Z,15.85
2017-07-05T05:05:41.396Z,15.84
2017-07-05T05:06:51.685Z,15.87
2017-07-05T05:08:01.914Z,15.88
2017-07-05T05:09:11.883Z,15.9
2017-07-05T05:10:21.840Z,15.96
2017-07-05T05:11:32.121Z,15.92
2017-07-05T05:12:42.392Z,15.96
2017-07-05T05:13:52.905Z,16.03
2017-07-05T05:15:03.171Z,16.06
2017-07-05T05:16:13.439Z,16.09
2017-07-05T05:17:23.700Z,16.16
2017-07-05T05:18:33.960Z,16.02
2017-07-05T05:19:44.168Z,16.02
2017-07-05T05:20:54.425Z,16.08
2017-07-05T05:22:04.694Z,16.09
2017-07-05T05:23:14.645Z,16.09
2017-07-05T05:24:24.575Z,16.08
2017-07-05T05:25:34.452Z,16.12
2017-07-05T05:26:44.725Z,16.1
2017-07-05T05:27:54.988Z,16
2017-07-05T05:29:05.264Z,15.99
2017-07-05T05:30:15.551Z,16.03
2017-07-05T05:31:26.058Z,15.98
2017-07-05T05:32:36.011Z,16.03
2017-07-05T05:33:45.647Z,16.03
2017-07-05T05:34:55.605Z,15.94
2017-07-05T05:36:04.922Z,15.94
2017-07-05T05:37:15.437Z,16.03
2017-07-05T05:38:25.404Z,16.03
2017-07-05T05:39:35.646Z,15.98
2017-07-05T05:40:45.291Z,16.02
2017-07-05T05:41:55.561Z,16
2017-07-05T05:43:06.086Z,16.1
2017-07-05T05:44:16.039Z,16.08
2017-07-05T05:45:26.000Z,16.09
2017-07-05T05:46:36.278Z,16.12
2017-07-05T05:47:46.546Z,16.1
2017-07-05T05:48:57.062Z,16.09
2017-07-05T05:50:06.697Z,16.08
2017-07-05T05:51:16.961Z,16.08
2017-07-05T05:52:26.599Z,16.06
2017-07-05T05:53:36.554Z,16.06
2017-07-05T05:54:47.072Z,16.02
2017-07-05T05:55:57.405Z,16.02
2017-07-05T05:57:07.034Z,16.05
2017-07-05T05:58:16.662Z,15.98
2017-07-05T05:59:26.643Z,16
2017-07-05T06:00:36.851Z,16.02
2017-07-05T06:01:46.797Z,16.09
2017-07-05T06:02:56.822Z,16.03
2017-07-05T06:04:07.084Z,15.91
2017-07-05T06:05:17.369Z,16.02
2017-07-05T06:06:27.888Z,15.92
2017-07-05T06:07:37.816Z,16.03
2017-07-05T06:08:48.102Z,16
2017-07-05T06:09:58.072Z,15.99
2017-07-05T06:11:08.349Z,15.96
2017-07-05T06:12:18.547Z,15.87
2017-07-05T06:13:28.828Z,15.73
2017-07-05T06:14:39.076Z,15.75
2017-07-05T06:15:49.338Z,15.63
2017-07-05T06:16:58.988Z,15.6
2017-07-05T06:18:08.896Z,15.48
2017-07-05T06:19:19.183Z,15.51
2017-07-05T06:20:28.826Z,15.43
2017-07-05T06:21:38.787Z,15.45
2017-07-05T06:22:48.758Z,15.47
2017-07-05T06:23:58.960Z,15.44
2017-07-05T06:25:08.290Z,15.36
2017-07-05T06:26:18.255Z,15.37
2017-07-05T06:27:28.223Z,15.43
2017-07-05T06:28:38.183Z,15.43
2017-07-05T06:29:48.385Z,15.37
2017-07-05T06:30:58.727Z,15.41
2017-07-05T06:32:08.310Z,15.39
2017-07-05T06:33:18.575Z,15.29
2017-07-05T06:34:43.772Z,15.35
2017-07-05T06:35:53.714Z,15.35
2017-07-05T06:37:03.671Z,15.25
2017-07-05T06:38:13.983Z,15.27
2017-07-05T06:39:23.300Z,15.35
2017-07-05T06:40:32.878Z,15.23
2017-07-05T06:41:43.148Z,15.32
2017-07-05T06:42:53.114Z,15.3
2017-07-05T06:44:03.378Z,15.32
2017-07-05T06:45:13.636Z,15.32
2017-07-05T06:46:24.339Z,15.3
2017-07-05T06:47:34.617Z,15.26
2017-07-05T06:48:45.070Z,15.26
2017-07-05T06:49:55.029Z,15.23
2017-07-05T06:51:04.354Z,15.26
2017-07-05T06:52:14.891Z,15.22
2017-07-05T06:53:24.520Z,15.12
2017-07-05T06:54:34.786Z,15.08
2017-07-05T06:55:44.759Z,15.02
2017-07-05T06:56:54.718Z,15.02
2017-07-05T06:58:05.294Z,15.02
2017-07-05T06:59:15.838Z,14.99
2017-07-05T07:00:25.472Z,15
2017-07-05T07:01:35.130Z,15.02
2017-07-05T07:02:44.768Z,15.04
2017-07-05T07:03:54.990Z,15.04
2017-07-05T07:05:04.704Z,15.05
2017-07-05T07:06:14.652Z,15.02
2017-07-05T07:07:24.911Z,14.99
2017-07-05T07:08:34.864Z,14.94
2017-07-05T07:09:45.381Z,15.05
2017-07-05T07:10:55.032Z,14.97
2017-07-05T07:12:05.295Z,14.92
2017-07-05T07:13:15.570Z,14.86
2017-07-05T07:14:25.517Z,14.89
2017-07-05T07:15:35.712Z,14.79
2017-07-05T07:16:45.660Z,14.77
2017-07-05T07:17:55.630Z,14.85
2017-07-05T07:19:05.595Z,14.9
2017-07-05T07:20:15.529Z,14.87
2017-07-05T07:21:26.052Z,14.9
2017-07-05T07:22:35.701Z,14.97
2017-07-05T07:23:45.659Z,14.94
2017-07-05T07:24:55.921Z,14.92
2017-07-05T07:26:05.559Z,15.02
2017-07-05T07:27:15.759Z,15.02
2017-07-05T07:28:26.042Z,15.07
2017-07-05T07:29:36.005Z,15.14
2017-07-05T07:30:45.951Z,15.11
2017-07-05T07:31:56.212Z,15.12
2017-07-05T07:33:06.117Z,15.11
2017-07-05T07:34:16.096Z,15.1
2017-07-05T07:35:26.394Z,15.1
2017-07-05T07:36:36.661Z,15.1
2017-07-05T07:37:46.297Z,15.07
2017-07-05T07:38:56.807Z,15.08
2017-07-05T07:40:06.450Z,15.1
2017-07-05T07:41:16.724Z,15.08
2017-07-05T07:42:27.018Z,15.12
2017-07-05T07:43:36.376Z,15.11
2017-07-05T07:44:46.618Z,15.15
2017-07-05T07:45:56.599Z,15.12
2017-07-05T07:47:06.568Z,15.11
2017-07-05T07:48:16.521Z,15.11
2017-07-05T07:49:26.809Z,15.17
2017-07-05T07:50:37.343Z,15.23
2017-07-05T07:51:47.291Z,15.18
2017-07-05T07:52:57.579Z,15.32
2017-07-05T07:54:07.880Z,15.23
2017-07-05T07:55:18.161Z,15.3
2017-07-05T07:56:28.678Z,15.29
2017-07-05T07:57:38.960Z,15.33
2017-07-05T07:58:49.245Z,15.47
2017-07-05T07:59:59.514Z,15.43
2017-07-05T08:01:09.502Z,15.55
2017-07-05T08:02:20.088Z,15.51
2017-07-05T08:03:30.042Z,15.5
2017-07-05T08:04:39.984Z,15.48
2017-07-05T08:05:50.244Z,15.41
2017-07-05T08:06:59.909Z,15.47
2017-07-05T08:08:09.794Z,15.43
2017-07-05T08:09:19.434Z,15.43
2017-07-05T08:10:29.704Z,15.39
2017-07-05T08:11:39.982Z,15.36
2017-07-05T08:12:50.299Z,15.35
2017-07-05T08:14:00.375Z,15.35
2017-07-05T08:15:10.569Z,15.39
2017-07-05T08:16:20.533Z,15.37
2017-07-05T08:17:30.809Z,15.41
2017-07-05T08:18:41.066Z,15.51
2017-07-05T08:19:51.609Z,15.45
2017-07-05T08:21:01.939Z,15.48
2017-07-05T08:22:12.216Z,15.44
2017-07-05T08:23:22.485Z,15.48
2017-07-05T08:24:32.751Z,15.51
2017-07-05T08:25:42.647Z,15.59
2017-07-05T08:26:52.338Z,15.66
2017-07-05T08:28:02.718Z,15.69
2017-07-05T08:29:12.712Z,15.67
2017-07-05T08:30:23.209Z,15.69
2017-07-05T08:31:33.337Z,15.72
2017-07-05T08:32:42.981Z,15.73
2017-07-05T08:33:53.289Z,15.63
2017-07-05T08:35:03.593Z,15.62
2017-07-05T08:36:13.904Z,15.72
2017-07-05T08:37:24.127Z,15.76
2017-07-05T08:38:34.397Z,15.91
2017-07-05T08:39:44.675Z,15.8
2017-07-05T08:40:54.959Z,15.72
2017-07-05T08:42:05.217Z,15.65
2017-07-05T08:43:15.759Z,15.52
2017-07-05T08:44:25.755Z,15.54
2017-07-05T08:45:36.056Z,15.62
2017-07-05T08:46:46.346Z,15.72
2017-07-05T08:47:56.317Z,15.75
2017-07-05T08:49:06.852Z,15.76
2017-07-05T08:50:17.127Z,15.91
2017-07-05T08:51:27.465Z,16.08
2017-07-05T08:52:37.156Z,16.24
2017-07-05T08:53:47.439Z,16.41
2017-07-05T08:54:57.660Z,16.44
2017-07-05T08:56:07.619Z,16.55
2017-07-05T08:57:17.610Z,16.65
2017-07-05T08:58:27.901Z,16.91
2017-07-05T08:59:37.855Z,17.04
2017-07-05T09:00:47.795Z,17.27
2017-07-05T09:01:58.103Z,17.53
2017-07-05T09:03:07.777Z,17.57
2017-07-05T09:04:18.070Z,17.86
2017-07-05T09:05:28.045Z,18.05
2017-07-05T09:06:38.334Z,18.39
2017-07-05T09:07:48.294Z,18.6
2017-07-05T09:08:58.232Z,18.55
2017-07-05T09:10:08.200Z,18.34
2017-07-05T09:11:18.483Z,18.37
2017-07-05T09:12:28.149Z,18.61
2017-07-05T09:13:38.113Z,18.89
2017-07-05T09:14:48.396Z,19.16
2017-07-05T09:15:58.363Z,19.19
2017-07-05T09:17:08.951Z,19.29
2017-07-05T09:18:18.910Z,19.42
2017-07-05T09:19:28.862Z,19.64
2017-07-05T09:20:39.179Z,19.9
2017-07-05T09:21:49.472Z,19.97
2017-07-05T09:22:59.688Z,20.12
2017-07-05T09:24:09.970Z,19.7
2017-07-05T09:25:20.260Z,19.56
2017-07-05T09:26:30.250Z,19.55
2017-07-05T09:27:40.549Z,19.57
2017-07-05T09:28:50.475Z,19.56
2017-07-05T09:30:00.126Z,19.64
2017-07-05T09:31:10.432Z,19.75
2017-07-05T09:32:20.709Z,19.97
2017-07-05T09:33:30.360Z,20.21
2017-07-05T09:34:40.650Z,20.5
2017-07-05T09:35:50.912Z,20.74
2017-07-05T09:37:01.202Z,20.86
2017-07-05T09:38:11.494Z,21.25
2017-07-05T09:39:21.779Z,21.32
2017-07-05T09:40:31.987Z,21.53
2017-07-05T09:41:41.960Z,21.7
2017-07-05T09:42:52.254Z,21.62
2017-07-05T09:44:02.533Z,21.41
2017-07-05T09:45:12.514Z,20.88
2017-07-05T09:46:22.738Z,20.67
2017-07-05T09:47:33.044Z,20.33
2017-07-05T09:48:43.332Z,20.14
2017-07-05T09:49:53.334Z,20.12
2017-07-05T09:51:03.617Z,20.1
2017-07-05T09:52:13.826Z,20.12
2017-07-05T09:53:23.476Z,20.12
2017-07-05T09:54:33.786Z,20.3
2017-07-05T09:55:43.773Z,20.55
2017-07-05T09:56:54.053Z,20.73
2017-07-05T09:58:04.262Z,21.03
2017-07-05T09:59:14.242Z,21.29
2017-07-05T10:00:24.267Z,21.44
2017-07-05T10:01:34.580Z,21.91
2017-07-05T10:02:44.541Z,22.3
2017-07-05T10:03:54.769Z,22.34
2017-07-05T10:05:05.056Z,22.65
2017-07-05T10:06:15.356Z,22.92
2017-07-05T10:07:25.642Z,23.25
2017-07-05T10:08:35.938Z,23.45
2017-07-05T10:09:45.872Z,23.33
2017-07-05T10:10:55.834Z,23.11
2017-07-05T10:12:06.152Z,22.81
2017-07-05T10:13:16.457Z,22.84
2017-07-05T10:14:26.105Z,22.21
2017-07-05T10:15:36.650Z,21.85
2017-07-05T10:16:46.331Z,21.63
2017-07-05T10:17:56.341Z,21.5
2017-07-05T10:19:06.317Z,21.58
2017-07-05T10:20:16.630Z,21.62
2017-07-05T10:21:27.153Z,21.58
2017-07-05T10:22:36.475Z,21.48
2017-07-05T10:23:46.432Z,21.84
2017-07-05T10:24:56.421Z,21.97
2017-07-05T10:26:06.708Z,22.25
2017-07-05T10:27:16.969Z,22.49
2017-07-05T10:28:27.233Z,22.89
2017-07-05T10:29:37.221Z,23.01
2017-07-05T10:30:47.210Z,23.06
2017-07-05T10:31:57.169Z,23.25
2017-07-05T10:33:07.384Z,23.58
2017-07-05T10:34:16.709Z,23.77
2017-07-05T10:35:26.675Z,23.63
2017-07-05T10:36:36.979Z,23.74
2017-07-05T10:37:47.282Z,23.48
2017-07-05T10:38:57.523Z,23.16
2017-07-05T10:40:07.499Z,23.02
2017-07-05T10:41:16.820Z,22.99
2017-07-05T10:42:26.463Z,22.99
2017-07-05T10:43:36.744Z,22.83
2017-07-05T10:44:46.961Z,22.99
2017-07-05T10:45:57.245Z,23.59
2017-07-05T10:47:07.222Z,24.13
2017-07-05T10:48:17.203Z,24.53
2017-07-05T10:49:27.490Z,24.55
2017-07-05T10:50:38.053Z,24.43
2017-07-05T10:51:48.344Z,24.22
2017-07-05T10:52:58.308Z,24.13
2017-07-05T10:54:07.960Z,23.88
2017-07-05T10:55:18.251Z,23.55
2017-07-05T10:56:28.516Z,23.48
2017-07-05T10:57:38.144Z,22.76
2017-07-05T10:58:48.371Z,22.8
2017-07-05T10:59:58.362Z,22.58
2017-07-05T11:01:08.662Z,22.34
2017-07-05T11:02:19.229Z,21.84
2017-07-05T11:03:29.528Z,21.45
2017-07-05T11:04:39.820Z,21.43
2017-07-05T11:05:49.783Z,21.53
2017-07-05T11:06:59.827Z,21.75
2017-07-05T11:08:10.076Z,22.04
2017-07-05T11:09:20.349Z,22.4
2017-07-05T11:10:30.314Z,22.84
2017-07-05T11:11:40.592Z,23.23
2017-07-05T11:12:50.877Z,23.48
2017-07-05T11:14:01.457Z,23.45
2017-07-05T11:15:11.415Z,23.47
2017-07-05T11:16:21.727Z,23.66
2017-07-05T11:17:31.738Z,23.79
2017-07-05T11:18:42.066Z,23.66
2017-07-05T11:19:52.307Z,23.25
2017-07-05T11:21:02.265Z,22.76
2017-07-05T11:22:12.567Z,22.8
2017-07-05T11:23:22.235Z,22.76
2017-07-05T11:24:31.896Z,22.67
2017-07-05T11:25:42.539Z,22.67
2017-07-05T11:26:52.333Z,22.73
2017-07-05T11:28:02.635Z,22.86
2017-07-05T11:29:12.919Z,23.06
2017-07-05T11:30:22.566Z,23.26
2017-07-05T11:31:33.165Z,23.45
2017-07-05T11:32:43.470Z,23.4
2017-07-05T11:33:53.127Z,23.34
2017-07-05T11:35:03.408Z,23.11
2017-07-05T11:36:13.719Z,23.21
2017-07-05T11:37:23.943Z,23.25
2017-07-05T11:38:33.927Z,23.14
2017-07-05T11:39:44.109Z,22.98
2017-07-05T11:40:54.115Z,22.74
2017-07-05T11:42:04.419Z,22.59
2017-07-05T11:43:14.629Z,22.38
2017-07-05T11:44:24.634Z,22.22
2017-07-05T11:45:35.014Z,22.43
2017-07-05T11:46:45.301Z,22.52
2017-07-05T11:47:55.266Z,22.65
2017-07-05T11:49:06.060Z,23.02
2017-07-05T11:50:16.080Z,23.14
2017-07-05T11:51:26.355Z,23.16
2017-07-05T11:52:36.651Z,23.26
2017-07-05T11:53:46.615Z,23.14
2017-07-05T11:54:57.163Z,22.83
2017-07-05T11:56:07.127Z,22.58
2017-07-05T11:57:17.418Z,22.37
2017-07-05T11:58:27.410Z,22.4
2017-07-05T11:59:37.383Z,22.55
2017-07-05T12:00:47.664Z,22.73
2017-07-05T12:01:57.961Z,22.86
2017-07-05T12:03:08.275Z,22.99
2017-07-05T12:04:17.921Z,22.86
2017-07-05T12:05:28.213Z,22.77
2017-07-05T12:06:38.121Z,22.78
2017-07-05T12:07:48.422Z,22.76
2017-07-05T12:08:58.405Z,22.68
2017-07-05T12:10:08.712Z,22.68
2017-07-05T12:11:18.998Z,22.52
2017-07-05T12:12:28.582Z,22.31
2017-07-05T12:13:37.599Z,22.07
2017-07-05T12:14:47.914Z,21.89
2017-07-05T12:15:58.208Z,21.99
2017-07-05T12:17:08.487Z,21.89
2017-07-05T12:18:18.997Z,22.03
2017-07-05T12:19:28.949Z,22.15
2017-07-05T12:20:38.928Z,22.41
2017-07-05T12:21:48.905Z,22.83
2017-07-05T12:22:58.861Z,23.28
2017-07-05T12:24:09.400Z,23.51
2017-07-05T12:25:19.672Z,23.55
2017-07-05T12:26:29.622Z,23.7
2017-07-05T12:27:39.902Z,23.74
2017-07-05T12:28:49.239Z,23.85
2017-07-05T12:29:59.514Z,23.74
2017-07-05T12:31:09.794Z,23.34
2017-07-05T12:32:20.072Z,22.83
2017-07-05T12:33:30.044Z,22.53
2017-07-05T12:34:40.010Z,22.67
2017-07-05T12:35:50.230Z,22.61
2017-07-05T12:37:00.193Z,22.8
2017-07-05T12:38:10.150Z,22.77
2017-07-05T12:39:20.451Z,22.95
2017-07-05T12:40:30.436Z,23.04
2017-07-05T12:41:40.702Z,23.14
2017-07-05T12:42:50.348Z,22.96
2017-07-05T12:44:00.319Z,22.88
2017-07-05T12:45:09.969Z,22.77
2017-07-05T12:46:20.263Z,22.91
2017-07-05T12:47:30.465Z,22.84
2017-07-05T12:48:40.425Z,22.67
2017-07-05T12:49:50.399Z,22.37
2017-07-05T12:51:00.710Z,22.33
2017-07-05T12:52:10.998Z,22.18
2017-07-05T12:53:21.560Z,22.06
2017-07-05T12:54:31.551Z,21.94
2017-07-05T12:55:41.864Z,21.85
2017-07-05T12:56:52.150Z,21.89
2017-07-05T12:58:02.476Z,21.89
2017-07-05T12:59:13.000Z,21.7
2017-07-05T13:00:23.284Z,21.43
2017-07-05T13:01:32.623Z,21.28
2017-07-05T13:02:42.570Z,21.25
2017-07-05T13:03:51.902Z,21.22
2017-07-05T13:05:02.449Z,21.26
2017-07-05T13:06:12.433Z,21.5
2017-07-05T13:07:22.093Z,21.8
2017-07-05T13:08:32.073Z,22.1
2017-07-05T13:09:42.042Z,22.22
2017-07-05T13:10:51.955Z,22.49
2017-07-05T13:12:01.927Z,22.84
2017-07-05T13:13:12.205Z,23.34
2017-07-05T13:14:22.188Z,23.34
2017-07-05T13:15:32.471Z,23.18
2017-07-05T13:16:42.999Z,23.06
2017-07-05T13:17:53.275Z,23.01
2017-07-05T13:19:03.557Z,23.08
2017-07-05T13:20:13.848Z,23.13
2017-07-05T13:21:24.122Z,23.36
2017-07-05T13:22:34.326Z,23.52
2017-07-05T13:23:44.581Z,23.64
2017-07-05T13:24:54.869Z,23.73
2017-07-05T13:26:04.850Z,23.85
2017-07-05T13:27:15.129Z,23.88
2017-07-05T13:28:25.332Z,23.45
2017-07-05T13:29:35.297Z,23.06
2017-07-05T13:30:45.579Z,23.02
2017-07-05T13:31:55.539Z,22.88
2017-07-05T13:33:05.198Z,22.95
2017-07-05T13:34:15.416Z,23.07
2017-07-05T13:35:25.724Z,23.29
2017-07-05T13:36:35.685Z,23.2
2017-07-05T13:37:45.975Z,23.13
2017-07-05T13:38:55.621Z,23.01
2017-07-05T13:40:06.162Z,22.67
2017-07-05T13:41:16.142Z,22.49
2017-07-05T13:42:26.121Z,22.28
2017-07-05T13:43:36.392Z,22.3
2017-07-05T13:44:46.357Z,22.31
2017-07-05T13:45:56.902Z,22.25
2017-07-05T13:47:06.867Z,22.51
2017-07-05T13:48:16.841Z,22.68
2017-07-05T13:49:27.123Z,22.58
2017-07-05T13:50:37.419Z,22.37
2017-07-05T13:51:47.705Z,22.34
2017-07-05T13:52:57.973Z,22.44
2017-07-05T13:54:07.297Z,22.4
2017-07-05T13:55:17.245Z,22.41
2017-07-05T13:56:27.205Z,22.28
2017-07-05T13:57:37.408Z,22.23
2017-07-05T13:58:47.437Z,22.33
2017-07-05T13:59:57.723Z,22.19
2017-07-05T14:01:07.373Z,22.49
2017-07-05T14:02:17.001Z,22.81
2017-07-05T14:03:27.579Z,23.08
2017-07-05T14:04:37.170Z,23.51
2017-07-05T14:05:47.195Z,23.84
2017-07-05T14:06:56.835Z,23.55
2017-07-05T14:08:07.116Z,23.26
2017-07-05T14:09:17.663Z,23.33
2017-07-05T14:10:27.617Z,23.21
2017-07-05T14:11:37.898Z,22.98
2017-07-05T14:12:47.855Z,23.2
2017-07-05T14:13:58.113Z,23.49
2017-07-05T14:15:08.655Z,24.01
2017-07-05T14:16:18.626Z,24.24
2017-07-05T14:17:28.589Z,24.41
2017-07-05T14:18:38.586Z,24.4
2017-07-05T14:19:48.550Z,24.22
2017-07-05T14:20:58.770Z,24.47
2017-07-05T14:22:09.059Z,24.37
2017-07-05T14:23:19.334Z,24.5
2017-07-05T14:24:29.607Z,24.65
2017-07-05T14:25:39.874Z,25.14
2017-07-05T14:26:50.092Z,25.26
2017-07-05T14:28:00.380Z,25.12
2017-07-05T14:29:10.351Z,24.79
2017-07-05T14:30:20.626Z,24.92
2017-07-05T14:31:30.921Z,24.71
2017-07-05T14:32:41.144Z,24.25
2017-07-05T14:33:51.416Z,24.19
2017-07-05T14:35:01.056Z,24.18
2017-07-05T14:36:11.362Z,24.14
2017-07-05T14:37:21.326Z,24.04
2017-07-05T14:38:31.223Z,23.56
2017-07-05T14:39:41.515Z,23.44
2017-07-05T14:40:51.487Z,23.48
2017-07-05T14:42:01.778Z,23.74
2017-07-05T14:43:12.054Z,23.88
2017-07-05T14:44:22.574Z,23.92
2017-07-05T14:45:32.858Z,23.95
2017-07-05T14:46:43.145Z,24.07
2017-07-05T14:47:53.418Z,24.14
2017-07-05T14:49:03.721Z,24.24
2017-07-05T14:50:14.250Z,23.88
2017-07-05T14:51:24.216Z,23.48
2017-07-05T14:52:34.167Z,23.06
2017-07-05T14:53:44.442Z,22.8
2017-07-05T14:54:54.730Z,22.51
2017-07-05T14:56:04.943Z,22.34
2017-07-05T14:57:14.603Z,22.18
2017-07-05T14:58:24.595Z,22.21
2017-07-05T14:59:34.878Z,22.3
2017-07-05T15:00:45.161Z,22.28
2017-07-05T15:01:55.696Z,22.34
2017-07-05T15:03:05.658Z,22.28
2017-07-05T15:04:15.948Z,22.23
2017-07-05T15:05:25.599Z,22.31
2017-07-05T15:06:35.255Z,22.26
2017-07-05T15:07:45.841Z,22.37
2017-07-05T15:08:55.808Z,22.51
2017-07-05T15:10:06.080Z,22.8
2017-07-05T15:11:16.063Z,22.95
2017-07-05T15:12:26.338Z,22.95